Time;durP1;ratioP1;P1;durP2;ratioP2;P2;SDS_P1;SDS_P2;PMS_P1;PMS_P2;Temp;Humidity;BMP_temperature;BMP_pressure;BME280_temperature;BME280_humidity;BME280_pressure;Samples;Min_cycle;Max_cycle;Signal;HPM_P1;HPM_P2
2021/03/07 00:02:10;;;;;;;5.60;2.75;;;;;;;-2.01;73.21;94181.06;5069659;28;20052;-78
2021/03/07 00:04:36;;;;;;;3.80;2.92;;;;;;;-2.08;73.87;94174.88;5069316;28;20537;-77
2021/03/07 00:07:02;;;;;;;;;;;;;;;-2.22;75.11;94180.88;5069608;28;20079;-77
2021/03/07 00:09:28;;;;;;;12.35;2.80;;;;;;;-2.25;76.49;94176.03;5069413;28;20397;-77
2021/03/07 00:11:54;;;;;;;;;;;;;;;-2.22;76.46;94178.34;5069713;28;20055;-78
2021/03/07 00:14:21;;;;;;;6.63;4.15;;;;;;;-2.28;77.94;94182.09;5069424;28;19920;-78
2021/03/07 00:16:47;;;;;;;;;;;;;;;-2.24;78.53;94178.44;5069838;28;20057;-78
2021/03/07 00:19:14;;;;;;;3.75;3.20;;;;;;;-2.31;78.31;94178.06;5069318;28;19921;-78
2021/03/07 00:21:40;;;;;;;7.18;4.50;;;;;;;-2.49;77.93;94172.63;5069213;28;20400;-78
2021/03/07 00:24:06;;;;;;;;;;;;;;;-2.58;79.41;94175.75;5069540;28;20094;-78
2021/03/07 00:26:32;;;;;;;9.73;4.22;;;;;;;-2.44;79.23;94169.78;5069444;28;19921;-78
2021/03/07 00:28:58;;;;;;;;;;;;;;;-2.43;78.78;94167.16;5069710;28;20044;-78
2021/03/07 00:31:25;;;;;;;11.52;3.97;;;;;;;-2.32;78.50;94171.44;5069412;28;20322;-78
2021/03/07 00:33:51;;;;;;;;;;;;;;;-2.23;78.23;94169.97;5069863;28;20048;-78
2021/03/07 00:36:18;;;;;;;15.90;4.28;;;;;;;-2.13;77.98;94167.63;5069300;28;19920;-78
2021/03/07 00:38:44;;;;;;;7.20;4.50;;;;;;;-1.97;76.39;94167.34;5069174;28;20479;-78
2021/03/07 00:41:10;;;;;;;;;;;;;;;-1.86;75.62;94158.22;5069459;28;20099;-78
2021/03/07 00:43:36;;;;;;;3.63;3.30;;;;;;;-1.78;74.98;94163.50;5069021;28;20307;-78
2021/03/07 00:46:02;;;;;;;;;;;;;;;-1.71;74.53;94161.34;5069916;28;20060;-78
2021/03/07 00:48:29;;;;;;;6.25;3.25;;;;;;;-1.82;73.07;94147.00;5069158;28;19925;-78
2021/03/07 00:50:55;;;;;;;;;;;;;;;-1.75;73.44;94158.25;5069414;28;20106;-78
2021/03/07 00:53:22;;;;;;;9.85;4.30;;;;;;;-1.81;73.30;94156.97;5068781;28;19924;-78
2021/03/07 00:55:49;;;;;;;3.92;3.38;;;;;;;-1.83;72.17;94145.41;5069230;28;20048;-78
2021/03/07 00:58:15;;;;;;;6.18;2.90;;;;;;;-1.76;73.12;94154.16;5069011;28;20048;-78
2021/03/07 01:00:45;;;;;;;;;;;;;;;-1.73;72.57;94148.09;5069214;28;20052;-78
2021/03/07 01:03:12;;;;;;;4.10;2.35;;;;;;;-1.83;72.13;94147.91;5069100;28;19924;-78
2021/03/07 01:05:38;;;;;;;8.63;3.55;;;;;;;-1.76;72.48;94141.56;5069201;28;20072;-78
2021/03/07 01:08:05;;;;;;;8.68;2.97;;;;;;;-1.80;72.84;94140.16;5072480;28;20094;-78
2021/03/07 01:10:35;;;;;;;4.65;3.47;;;;;;;-1.75;71.45;94140.63;5072577;28;20045;-78
2021/03/07 01:13:01;;;;;;;5.18;3.10;;;;;;;-1.89;71.59;94139.09;5072638;28;20044;-78
2021/03/07 01:15:29;;;;;;;9.85;4.57;;;;;;;-1.99;70.69;94128.09;5072571;28;20052;-78
2021/03/07 01:17:55;;;;;;;13.00;5.50;;;;;;;-1.97;72.00;94139.66;5072792;28;20814;-78
2021/03/07 01:20:22;;;;;;;7.40;4.70;;;;;;;-2.12;71.84;94145.78;5072219;28;20048;-78
2021/03/07 01:22:49;;;;;;;12.80;4.70;;;;;;;-2.19;71.17;94137.84;5072458;28;20552;-78
2021/03/07 01:25:18;;;;;;;5.45;3.60;;;;;;;-2.38;72.68;94135.81;5072603;28;20053;-78
2021/03/07 01:27:44;;;;;;;7.18;4.57;;;;;;;-2.40;72.78;94137.66;5072248;28;20052;-78
2021/03/07 01:30:11;;;;;;;;;;;;;;;-2.49;72.84;94132.34;5072616;28;20055;-78
2021/03/07 01:32:37;;;;;;;7.70;4.40;;;;;;;-2.78;73.38;94121.78;5072559;28;19920;-78
2021/03/07 01:35:04;;;;;;;10.15;5.45;;;;;;;-2.77;75.31;94133.44;5072352;28;20094;-78
2021/03/07 01:37:31;;;;;;;8.77;4.90;;;;;;;-2.95;75.43;94128.78;5072389;28;20443;-78
2021/03/07 01:39:57;;;;;;;11.25;5.47;;;;;;;-2.82;75.02;94134.56;5072057;28;20045;-78
2021/03/07 01:42:24;;;;;;;;;;;;;;;-2.84;75.70;94128.84;5072654;28;20122;-78
2021/03/07 01:44:50;;;;;;;6.93;5.97;;;;;;;-2.89;76.23;94117.47;5072221;28;19924;-78
2021/03/07 01:47:18;;;;;;;;;;;;;;;-2.90;75.81;94119.22;5072470;28;20048;-78
2021/03/07 01:49:44;;;;;;;9.73;4.90;;;;;;;-2.89;76.08;94114.97;5072067;28;19966;-78
2021/03/07 01:52:11;;;;;;;5.13;4.65;;;;;;;-2.92;76.71;94110.94;5072178;28;20045;-78
2021/03/07 01:54:37;;;;;;;;;;;;;;;-2.77;76.06;94108.31;5072553;28;20048;-78
2021/03/07 01:57:05;;;;;;;11.43;3.60;;;;;;;-2.96;75.82;94115.38;5071832;28;20283;-78
2021/03/07 01:59:33;;;;;;;7.95;4.43;;;;;;;-3.26;76.54;94101.47;5071725;28;20052;-78
2021/03/07 02:02:00;;;;;;;8.52;5.28;;;;;;;-3.57;78.13;94100.22;5071657;28;20045;-78
2021/03/07 02:04:26;;;;;;;7.85;5.43;;;;;;;-3.80;79.04;94105.81;5071629;28;20106;-78
2021/03/07 02:06:52;;;;;;;;;;;;;;;-3.72;77.91;94100.31;5072352;28;20048;-77
2021/03/07 02:09:19;;;;;;;6.63;4.63;;;;;;;-3.60;78.85;94105.44;5071636;28;20371;-78
2021/03/07 02:11:46;;;;;;;7.13;4.28;;;;;;;-3.49;78.11;94103.81;5071859;28;20049;-77
2021/03/07 02:14:12;;;;;;;5.80;5.03;;;;;;;-3.38;78.37;94094.78;5071785;28;20060;-78
2021/03/07 02:16:40;;;;;;;12.30;5.93;;;;;;;-3.66;78.65;94089.84;5071579;28;20052;-77
2021/03/07 02:19:07;;;;;;;10.18;4.63;;;;;;;-3.75;79.53;94098.00;5071297;28;20052;-77
2021/03/07 02:21:37;;;;;;;10.07;4.03;;;;;;;-3.80;79.54;94093.28;5071651;28;20389;-76
2021/03/07 02:24:06;;;;;;;9.88;5.95;;;;;;;-4.00;79.94;94094.56;5071183;28;20055;-76
2021/03/07 02:26:34;;;;;;;6.38;5.88;;;;;;;-4.12;81.79;94091.13;5071574;28;20041;-76
2021/03/07 02:29:02;;;;;;;9.30;5.90;;;;;;;-4.05;81.70;94099.06;5071172;28;20052;-76
2021/03/07 02:31:28;;;;;;;19.02;6.68;;;;;;;-4.16;81.83;94087.22;5071527;28;20044;-76
2021/03/07 02:34:00;;;;;;;5.20;3.97;;;;;;;-4.11;82.83;94077.69;5071460;28;20415;-76
2021/03/07 02:36:31;;;;;;;9.77;5.28;;;;;;;-3.83;81.21;94092.66;5071294;28;20059;-75
2021/03/07 02:39:00;;;;;;;5.82;4.53;;;;;;;-3.81;80.44;94089.16;5071043;28;20054;-76
2021/03/07 02:41:30;;;;;;;6.72;5.07;;;;;;;-4.28;82.89;94088.81;5071461;28;20056;-75
2021/03/07 02:43:58;;;;;;;7.55;5.93;;;;;;;-4.20;82.96;94091.63;5071253;28;20384;-75
2021/03/07 02:46:27;;;;;;;8.55;5.35;;;;;;;-4.11;83.38;94085.22;5071044;28;20055;-75
2021/03/07 02:48:56;;;;;;;10.45;4.82;;;;;;;-4.07;82.85;94079.09;5070806;28;20048;-75
2021/03/07 02:51:26;;;;;;;13.48;5.40;;;;;;;-4.06;82.61;94067.34;5070637;28;20693;-75
2021/03/07 02:53:54;;;;;;;8.70;4.88;;;;;;;-3.97;82.04;94091.06;5070966;28;20048;-76
2021/03/07 02:56:23;;;;;;;7.55;6.05;;;;;;;-4.10;81.72;94084.31;5070776;28;20076;-75
2021/03/07 02:58:56;;;;;;;7.05;4.45;;;;;;;-4.08;82.27;94085.00;5071111;28;20438;-76
2021/03/07 03:01:24;;;;;;;7.45;4.75;;;;;;;-4.05;81.14;94091.53;5070756;28;20048;-76
2021/03/07 03:03:51;;;;;;;7.72;4.45;;;;;;;-4.06;81.03;94087.44;5070522;28;20044;-75
2021/03/07 03:06:19;;;;;;;14.23;6.68;;;;;;;-4.18;81.91;94087.31;5070745;28;20110;-77
2021/03/07 03:08:46;;;;;;;8.77;5.05;;;;;;;-4.16;82.17;94084.72;5070755;28;20053;-77
2021/03/07 03:11:13;;;;;;;5.30;3.88;;;;;;;-4.12;83.09;94091.13;5070880;28;20067;-77
2021/03/07 03:13:40;;;;;;;5.57;4.10;;;;;;;-4.11;82.95;94077.69;5070725;28;20162;-77
2021/03/07 03:16:09;;;;;;;6.68;3.13;;;;;;;-4.18;82.09;94084.00;5070544;28;20051;-77
2021/03/07 03:18:37;;;;;;;8.60;4.82;;;;;;;-4.26;82.07;94079.47;5070357;28;20084;-77
2021/03/07 03:21:06;;;;;;;6.80;4.03;;;;;;;-4.26;82.13;94081.19;5069997;28;20055;-76
2021/03/07 03:23:33;;;;;;;5.35;4.82;;;;;;;-4.29;81.99;94082.97;5070409;28;20118;-76
2021/03/07 03:25:59;;;;;;;5.40;3.92;;;;;;;-4.35;81.63;94083.34;5070075;28;20075;-76
2021/03/07 03:28:25;;;;;;;5.18;3.40;;;;;;;-4.46;82.03;94068.19;5070354;28;20045;-76
2021/03/07 03:30:52;;;;;;;;;;;;;;;-4.38;82.52;94075.22;5070575;28;20053;-76
2021/03/07 03:33:19;;;;;;;5.68;3.33;;;;;;;-4.43;82.01;94078.03;5070299;28;19924;-76
2021/03/07 03:35:45;;;;;;;4.00;2.42;;;;;;;-4.44;82.18;94078.94;5070383;28;20048;-76
2021/03/07 03:38:11;;;;;;;;;;;;;;;-4.51;82.60;94078.50;5070666;28;20053;-76
2021/03/07 03:40:38;;;;;;;4.70;2.50;;;;;;;-4.55;81.63;94082.09;5070103;28;19974;-76
2021/03/07 03:43:08;;;;;;;4.90;3.60;;;;;;;-4.64;82.77;94083.47;5070153;28;20048;-76
2021/03/07 03:45:37;;;;;;;13.77;3.47;;;;;;;-4.63;82.49;94086.81;5070121;28;20049;-76
2021/03/07 03:48:07;;;;;;;4.43;3.03;;;;;;;-4.71;81.91;94085.56;5069879;28;20408;-76
2021/03/07 03:50:38;;;;;;;9.07;3.35;;;;;;;-4.84;82.24;94072.19;5069980;28;20388;-76
2021/03/07 03:53:07;;;;;;;4.68;2.35;;;;;;;-4.79;82.68;94080.22;5070265;28;20136;-75
2021/03/07 03:55:35;;;;;;;8.38;3.97;;;;;;;-4.80;83.43;94082.81;5069664;28;20049;-76
2021/03/07 03:58:04;;;;;;;5.10;3.72;;;;;;;-5.03;82.91;94060.78;5069396;28;20048;-75
2021/03/07 04:00:34;;;;;;;16.33;4.10;;;;;;;-4.87;83.55;94082.38;5070165;28;20052;-75
2021/03/07 04:03:01;;;;;;;4.70;3.72;;;;;;;-4.91;82.94;94079.25;5069489;28;20389;-75
2021/03/07 04:05:30;;;;;;;6.93;3.15;;;;;;;-4.96;83.00;94079.56;5069499;28;20087;-75
2021/03/07 04:07:59;;;;;;;5.65;3.85;;;;;;;-5.01;82.44;94075.72;5069826;28;20044;-75
2021/03/07 04:10:26;;;;;;;5.30;2.92;;;;;;;-5.06;82.99;94067.69;5069274;28;20045;-76
2021/03/07 04:12:58;;;;;;;2.30;2.05;;;;;;;-5.04;82.62;94081.75;5069293;28;20060;-75
2021/03/07 04:15:27;;;;;;;4.13;3.10;;;;;;;-5.05;82.56;94080.09;5069278;28;20040;-76
2021/03/07 04:17:55;;;;;;;8.40;3.65;;;;;;;-5.04;82.93;94070.91;5069198;28;20098;-76
2021/03/07 04:20:22;;;;;;;5.82;1.98;;;;;;;-5.20;83.13;94056.78;5069351;28;20044;-76
2021/03/07 04:22:49;;;;;;;4.00;3.00;;;;;;;-5.09;82.56;94088.72;5069493;28;20068;-77
2021/03/07 04:25:16;;;;;;;6.15;2.55;;;;;;;-5.08;82.92;94080.31;5069159;28;20051;-76
2021/03/07 04:27:44;;;;;;;3.75;2.88;;;;;;;-5.16;82.93;94083.28;5069432;28;20048;-76
2021/03/07 04:30:12;;;;;;;7.78;3.47;;;;;;;-5.21;82.95;94086.94;5069154;28;20058;-76
2021/03/07 04:32:39;;;;;;;4.20;3.50;;;;;;;-5.58;82.55;94050.69;5069539;28;20044;-77
2021/03/07 04:35:07;;;;;;;12.93;3.90;;;;;;;-5.45;83.82;94083.31;5069702;28;20055;-77
2021/03/07 04:37:33;;;;;;;2.60;2.22;;;;;;;-5.58;84.30;94070.72;5069271;28;20415;-77
2021/03/07 04:39:59;;;;;;;2.50;2.30;;;;;;;-5.53;84.08;94075.44;5069225;28;20547;-76
2021/03/07 04:42:27;;;;;;;4.78;2.30;;;;;;;-5.50;84.04;94075.25;5071365;28;20049;-77
2021/03/07 04:44:53;;;;;;;4.25;2.58;;;;;;;-5.54;83.54;94079.66;5073228;28;20052;-77
2021/03/07 04:47:19;;;;;;;;;;;;;;;-5.48;83.68;94087.69;5055021;28;20053;-77
2021/03/07 04:49:45;;;;;;;4.25;3.72;;;;;;;-5.55;84.51;94084.75;5053158;28;19998;-77
2021/03/07 04:52:12;;;;;;;4.00;3.35;;;;;;;-5.57;84.28;94081.50;5041467;28;20044;-76
2021/03/07 04:54:38;;;;;;;;;;;;;;;-5.53;84.10;94085.44;5042338;28;20048;-76
2021/03/07 04:57:04;;;;;;;2.15;2.00;;;;;;;-5.59;83.90;94086.63;5042755;28;19921;-76
2021/03/07 04:59:32;;;;;;;6.40;3.40;;;;;;;-5.56;84.51;94088.16;5043554;28;20045;-76
2021/03/07 05:01:59;;;;;;;4.88;3.13;;;;;;;-5.71;84.34;94057.28;5041770;28;20050;-76
2021/03/07 05:04:25;;;;;;;6.90;4.20;;;;;;;-5.61;83.70;94078.38;5042557;28;20053;-76
2021/03/07 05:06:52;;;;;;;5.72;3.92;;;;;;;-5.56;83.95;94080.63;5038629;28;20048;-76
2021/03/07 05:09:18;;;;;;;6.25;3.95;;;;;;;-5.51;84.93;94079.47;5039536;28;20038;-77
2021/03/07 05:11:44;;;;;;;;;;;;;;;-5.49;84.17;94079.38;5038655;28;20408;-76
2021/03/07 05:14:10;;;;;;;4.47;1.90;;;;;;;-5.62;84.00;94071.78;5037028;28;19921;-77
2021/03/07 05:16:38;;;;;;;6.78;3.30;;;;;;;-5.53;83.74;94085.44;5052504;28;20052;-76
2021/03/07 05:19:05;;;;;;;6.68;3.95;;;;;;;-5.58;83.97;94082.41;5052388;28;20560;-76
2021/03/07 05:21:31;;;;;;;4.07;3.25;;;;;;;-5.55;84.12;94080.53;5052731;28;20411;-76
2021/03/07 05:23:59;;;;;;;;;;;;;;;-5.59;84.20;94081.63;5045496;28;20408;-76
2021/03/07 05:26:27;;;;;;;4.28;2.92;;;;;;;-5.83;84.20;94054.59;5052571;28;20236;-76
2021/03/07 05:28:54;;;;;;;10.38;4.22;;;;;;;-5.63;83.81;94090.19;5052437;28;20107;-75
2021/03/07 05:31:20;;;;;;;5.47;3.38;;;;;;;-5.64;84.54;94083.59;5052444;28;20072;-75
2021/03/07 05:33:47;;;;;;;7.97;3.80;;;;;;;-5.58;84.59;94082.41;5052824;28;20415;-74
2021/03/07 05:36:13;;;;;;;6.78;4.70;;;;;;;-5.62;84.52;94081.78;5052252;28;20091;-76
2021/03/07 05:38:40;;;;;;;8.07;3.35;;;;;;;-5.55;84.21;94083.03;5052252;28;20061;-75
2021/03/07 05:41:06;;;;;;;6.65;5.28;;;;;;;-5.36;84.45;94081.97;5040010;28;20045;-75
2021/03/07 05:43:33;;;;;;;14.30;5.43;;;;;;;-5.27;84.53;94081.41;5032510;28;20053;-75
2021/03/07 05:45:59;;;;;;;;;;;;;;;-5.04;83.52;94085.94;5032837;28;20049;-75
2021/03/07 05:48:27;;;;;;;6.97;4.35;;;;;;;-4.90;83.03;94080.91;5032415;28;19951;-75
2021/03/07 05:50:54;;;;;;;8.82;5.43;;;;;;;-4.73;83.15;94084.03;5031336;28;20048;-75
2021/03/07 05:53:21;;;;;;;18.80;7.72;;;;;;;-4.61;83.07;94080.81;5053122;28;20519;-76
2021/03/07 05:55:48;;;;;;;8.52;5.20;;;;;;;-4.39;82.97;94079.47;5070572;28;20044;-76
2021/03/07 05:58:16;;;;;;;8.35;4.43;;;;;;;-4.20;81.60;94079.09;5071894;28;20094;-76
2021/03/07 06:00:43;;;;;;;11.45;4.82;;;;;;;-3.97;80.43;94089.38;5065703;28;20053;-76
2021/03/07 06:03:09;;;;;;;4.93;3.35;;;;;;;-3.90;78.97;94083.03;5044623;28;20123;-77
2021/03/07 06:05:36;;;;;;;14.77;5.32;;;;;;;-3.68;79.88;94083.31;5031998;28;20054;-77
2021/03/07 06:08:04;;;;;;;4.65;3.67;;;;;;;-3.45;79.69;94084.31;5031466;28;20049;-78
2021/03/07 06:10:31;;;;;;;5.28;3.65;;;;;;;-3.29;78.72;94069.00;5031819;28;20451;-77
2021/03/07 06:13:01;;;;;;;13.32;6.60;;;;;;;-2.95;78.17;94081.78;5031669;28;20096;-77
2021/03/07 06:15:28;;;;;;;14.32;6.13;;;;;;;-2.86;77.09;94061.97;5045616;28;20393;-78
2021/03/07 06:17:54;;;;;;;17.92;9.35;;;;;;;-2.49;77.27;94081.22;5051634;28;20060;-77
2021/03/07 06:20:22;;;;;;;15.85;8.23;;;;;;;-2.28;76.92;94078.91;5051430;28;20416;-76
2021/03/07 06:22:54;;;;;;;20.27;10.88;;;;;;;-2.15;75.44;94067.06;5068118;28;20059;-79
2021/03/07 06:25:21;;;;;;;20.05;11.27;;;;;;;-2.05;75.00;94054.59;5071228;28;20090;-79
2021/03/07 06:27:48;;;;;;;19.23;12.32;;;;;;;-1.68;74.60;94065.41;5071493;28;20044;-79
2021/03/07 06:30:17;;;;;;;10.43;5.53;;;;;;;-1.42;72.63;94062.66;5071352;28;20049;-79
2021/03/07 06:32:50;;;;;;;8.80;4.30;;;;;;;-1.16;71.93;94065.72;5070958;28;20045;-79
2021/03/07 06:35:20;;;;;;;6.70;4.95;;;;;;;-1.07;70.02;94056.66;5070976;28;20048;-78
2021/03/07 06:37:52;;;;;;;7.88;5.22;;;;;;;-0.83;70.15;94046.41;5071276;28;20063;-79
2021/03/07 06:40:28;;;;;;;7.90;4.55;;;;;;;-0.48;68.70;94064.78;5071269;28;20045;-79
2021/03/07 06:42:55;;;;;;;7.40;4.07;;;;;;;-0.26;68.20;94070.66;5070806;28;20048;-79
2021/03/07 06:45:21;;;;;;;10.35;6.05;;;;;;;-0.20;66.46;94066.84;5070568;28;20511;-79
2021/03/07 06:48:06;;;;;;;12.38;5.63;;;;;;;-0.19;65.49;94060.88;5071190;28;20041;-79
2021/03/07 06:50:32;;;;;;;8.98;4.97;;;;;;;0.07;65.92;94065.56;5070755;28;20427;-80
2021/03/07 06:53:00;;;;;;;15.13;7.88;;;;;;;0.27;65.22;94066.47;5070318;28;20495;-79
2021/03/07 06:55:28;;;;;;;12.73;5.82;;;;;;;0.37;64.96;94034.44;5070760;28;20056;-80
2021/03/07 06:57:55;;;;;;;12.82;6.07;;;;;;;0.73;63.40;94061.06;5070605;28;20514;-80
2021/03/07 07:00:38;;;;;;;11.65;5.20;;;;;;;0.62;58.66;94050.13;5067485;28;20140;-81
2021/03/07 07:03:09;;;;;;;12.07;6.53;;;;;;;0.83;60.09;94069.47;5050669;28;20041;-81
2021/03/07 07:05:38;;;;;;;15.13;6.25;;;;;;;0.97;61.30;94055.69;5049671;28;20053;-82
2021/03/07 07:08:05;;;;;;;11.52;5.28;;;;;;;0.92;60.71;94027.44;5050643;28;20048;-82
2021/03/07 07:10:57;;;;;;;12.10;5.60;;;;;;;1.23;60.01;94054.41;5050552;28;20049;-83
2021/03/07 07:13:24;;;;;;;18.90;7.00;;;;;;;1.40;61.36;94048.72;5050314;28;20108;-82
2021/03/07 07:16:09;;;;;;;11.93;6.28;;;;;;;1.53;58.13;94040.03;5033699;28;20424;-84
2021/03/07 07:18:37;;;;;;;9.25;4.47;;;;;;;1.77;59.38;94056.56;5030466;28;20519;-83
2021/03/07 07:21:05;;;;;;;9.02;5.20;;;;;;;1.93;58.42;94048.41;5030653;28;20396;-83
2021/03/07 07:23:32;;;;;;;5.68;3.50;;;;;;;1.72;53.00;94051.91;5030570;28;20045;-82
2021/03/07 07:26:00;;;;;;;10.45;5.00;;;;;;;2.02;56.79;94051.84;5030607;28;20095;-82
2021/03/07 07:28:27;;;;;;;10.55;5.93;;;;;;;1.61;52.66;94052.81;5030329;28;20493;-83
2021/03/07 07:30:58;;;;;;;6.57;4.18;;;;;;;1.59;53.20;94049.63;5030177;28;20489;-83
2021/03/07 07:33:42;;;;;;;5.57;3.45;;;;;;;1.58;52.08;94053.09;5030071;28;20049;-82
2021/03/07 07:36:11;;;;;;;6.93;3.58;;;;;;;1.48;49.64;94042.19;5030379;28;20053;-85
2021/03/07 07:38:39;;;;;;;6.82;3.63;;;;;;;1.81;51.20;94043.47;5030809;28;20107;-84
2021/03/07 07:41:26;;;;;;;13.50;3.90;;;;;;;2.05;53.51;94044.00;5030087;28;20061;-84
2021/03/07 07:43:52;;;;;;;3.13;2.17;;;;;;;1.95;48.04;94044.81;5029895;28;20056;-83
2021/03/07 07:46:19;;;;;;;5.13;3.20;;;;;;;1.68;49.80;94018.47;5030028;28;20046;-83
2021/03/07 07:48:46;;;;;;;3.92;2.80;;;;;;;1.31;49.87;94026.72;5030148;28;20049;-84
2021/03/07 07:51:36;;;;;;;5.47;3.25;;;;;;;1.24;49.86;93991.00;5056006;28;20049;-83
2021/03/07 07:54:48;;;;;;;3.77;3.40;;;;;;;1.15;50.58;94030.56;5121053;27;819476;-83
2021/03/07 07:57:40;;;;;;;7.85;2.78;;;;;;;1.46;50.63;94020.31;5127776;28;20089;-84
2021/03/07 08:00:09;;;;;;;4.25;2.60;;;;;;;1.40;49.04;94025.13;5127367;28;20490;-82
2021/03/07 08:02:55;;;;;;;8.15;4.38;;;;;;;1.65;50.55;94018.72;5127650;28;20048;-82
2021/03/07 08:05:41;;;;;;;3.22;1.92;;;;;;;2.03;49.24;94015.47;5126945;28;20043;-82
2021/03/07 08:08:09;;;;;;;6.00;2.72;;;;;;;2.15;49.49;94011.81;5107431;28;20146;-82
2021/03/07 08:10:44;;;;;;;8.93;3.10;;;;;;;2.55;49.73;94007.44;5107314;28;20052;-81
2021/03/07 08:13:11;;;;;;;6.25;2.05;;;;;;;2.75;49.75;94004.78;5079229;28;20504;-81
2021/03/07 08:15:49;;;;;;;3.00;1.40;;;;;;;3.05;48.55;94010.47;5066358;28;20044;-85
2021/03/07 08:18:18;;;;;;;8.30;3.70;;;;;;;3.15;50.47;93997.75;5066348;28;20041;-83
2021/03/07 08:21:01;;;;;;;3.55;1.95;;;;;;;3.33;44.86;93992.66;5065976;28;20488;-83
2021/03/07 08:23:27;;;;;;;4.20;2.88;;;;;;;2.97;45.32;93992.66;5066355;28;20151;-82
2021/03/07 08:26:02;;;;;;;7.95;2.70;;;;;;;3.48;45.98;93988.66;5065998;28;20527;-82
2021/03/07 08:28:42;;;;;;;5.07;2.88;;;;;;;3.80;45.36;93990.81;5066231;28;20076;-82
2021/03/07 08:31:28;;;;;;;5.25;2.15;;;;;;;4.26;47.47;93977.91;5065592;28;20056;-81
2021/03/07 08:33:54;;;;;;;4.78;2.35;;;;;;;4.36;42.82;93982.88;5065673;28;20496;-80
2021/03/07 08:36:21;;;;;;;;;;;;;;;4.47;41.13;93974.97;5066216;28;20075;-81
2021/03/07 08:39:16;;;;;;;12.27;5.47;;;;;;;4.75;44.43;93967.13;5065535;28;19928;-81
2021/03/07 08:42:03;;;;;;;8.40;3.45;;;;;;;4.76;43.14;93932.25;5046023;28;20049;-81
2021/03/07 08:44:30;;;;;;;123.75;37.53;;;;;;;5.21;43.71;93948.09;5045879;28;20381;-80
2021/03/07 08:46:57;;;;;;;88.43;25.20;;;;;;;5.40;43.52;93947.00;5045256;28;20050;-81
2021/03/07 08:49:26;;;;;;;134.32;37.08;;;;;;;5.61;43.62;93951.59;5045856;28;20444;-81
2021/03/07 08:52:04;;;;;;;18.40;7.53;;;;;;;5.69;41.33;93932.97;5045821;28;20045;-81
2021/03/07 08:54:32;;;;;;;12.82;4.35;;;;;;;5.94;42.76;93934.69;5045695;28;20488;-80
2021/03/07 08:57:06;;;;;;;9.73;3.67;;;;;;;6.12;41.66;93944.72;5045458;28;20115;-81
2021/03/07 08:59:34;;;;;;;11.43;4.97;;;;;;;6.33;42.94;93945.91;5045738;28;20060;-81
2021/03/07 09:02:01;;;;;;;5.80;3.30;;;;;;;6.41;41.42;93930.59;5045317;28;20045;-81
2021/03/07 09:04:33;;;;;;;6.45;2.65;;;;;;;6.51;39.60;93932.94;5038666;28;20045;-81
2021/03/07 09:07:00;;;;;;;51.47;14.40;;;;;;;6.93;41.22;93921.56;5032102;28;20207;-81
2021/03/07 09:09:26;;;;;;;175.95;57.25;;;;;;;7.00;39.74;93916.56;5031914;28;20053;-81
2021/03/07 09:11:54;;;;;;;60.45;20.17;;;;;;;6.88;40.34;93905.13;5031868;28;20451;-80
2021/03/07 09:14:30;;;;;;;23.48;8.85;;;;;;;6.91;40.15;93905.59;5031519;28;20095;-81
2021/03/07 09:16:58;;;;;;;7.88;2.67;;;;;;;6.28;37.57;93900.50;5031995;28;20064;-81
2021/03/07 09:19:31;;;;;;;5.47;2.72;;;;;;;6.24;37.61;93914.53;5031876;28;20056;-81
2021/03/07 09:22:24;;;;;;;7.22;3.33;;;;;;;6.29;40.56;93902.06;5031630;28;20526;-81
2021/03/07 09:25:10;;;;;;;10.68;5.07;;;;;;;6.62;40.58;93896.03;4996534;28;20060;-81
2021/03/07 09:27:39;;;;;;;7.18;3.40;;;;;;;6.75;40.47;93892.94;5031977;28;20072;-81
2021/03/07 09:30:14;;;;;;;6.57;3.13;;;;;;;6.92;40.61;93881.66;5031883;28;20053;-81
2021/03/07 09:32:42;;;;;;;3.72;2.38;;;;;;;7.25;39.88;93880.63;5031301;28;20687;-81
2021/03/07 09:35:20;;;;;;;3.00;1.98;;;;;;;7.49;38.16;93882.19;5031626;28;20497;-81
2021/03/07 09:37:54;;;;;;;4.72;3.63;;;;;;;7.69;39.00;93873.22;5031574;28;20398;-81
2021/03/07 09:40:21;;;;;;;11.57;5.55;;;;;;;7.86;38.97;93866.16;5031087;28;20111;-81
2021/03/07 09:42:54;;;;;;;6.38;3.58;;;;;;;7.78;39.25;93863.69;5031203;28;20042;-80
2021/03/07 09:45:22;;;;;;;10.70;5.40;;;;;;;7.94;38.01;93855.84;5031357;28;20049;-81
2021/03/07 09:47:49;;;;;;;11.10;7.22;;;;;;;7.97;38.46;93862.38;5031525;28;20053;-81
2021/03/07 09:50:16;;;;;;;5.65;2.92;;;;;;;7.98;38.04;93851.97;5031123;28;20615;-81
2021/03/07 09:52:44;;;;;;;4.43;2.50;;;;;;;7.83;37.75;93851.19;5031056;28;20064;-80
2021/03/07 09:55:11;;;;;;;8.07;3.05;;;;;;;7.67;37.11;93844.44;5030923;28;20420;-80
2021/03/07 09:57:39;;;;;;;34.85;12.60;;;;;;;7.38;36.98;93844.25;5031307;28;20050;-81
2021/03/07 10:00:06;;;;;;;6.07;3.17;;;;;;;7.62;38.41;93839.88;5030198;28;20092;-83
2021/03/07 10:02:35;;;;;;;3.75;2.50;;;;;;;7.74;39.20;93847.91;5011195;28;20042;-81
2021/03/07 10:05:11;;;;;;;4.97;2.95;;;;;;;7.82;37.84;93842.69;5010831;28;20046;-81
2021/03/07 10:07:37;;;;;;;4.88;2.15;;;;;;;7.73;35.74;93836.88;5011339;28;20497;-81
2021/03/07 10:10:07;;;;;;;6.65;3.40;;;;;;;7.88;38.82;93815.63;4992463;28;20052;-81
2021/03/07 10:12:43;;;;;;;6.57;3.67;;;;;;;7.91;39.10;93817.81;5048711;28;20061;-81
2021/03/07 10:15:12;;;;;;;5.65;3.38;;;;;;;8.01;39.02;93825.25;5052708;28;20053;-82
2021/03/07 10:17:41;;;;;;;5.78;2.42;;;;;;;7.66;37.31;93819.84;5049786;28;20503;-81
2021/03/07 10:20:10;;;;;;;6.22;3.15;;;;;;;7.88;39.49;93798.50;5051035;28;20136;-81
2021/03/07 10:22:38;;;;;;;7.32;2.40;;;;;;;8.21;38.22;93792.22;5050768;28;20480;-81
2021/03/07 10:25:06;;;;;;;5.40;2.80;;;;;;;8.31;37.45;93799.59;5050352;28;20053;-82
2021/03/07 10:27:33;;;;;;;3.95;2.63;;;;;;;8.38;37.18;93794.53;5050657;28;20416;-82
2021/03/07 10:30:00;;;;;;;8.25;2.70;;;;;;;8.29;38.73;93781.84;5039545;28;20634;-81
2021/03/07 10:32:26;;;;;;;7.88;3.28;;;;;;;8.04;36.68;93775.47;5026766;28;20099;-82
2021/03/07 10:34:53;;;;;;;;;;;;;;;7.89;37.65;93779.66;5019585;28;20500;-82
2021/03/07 10:37:48;;;;;;;6.53;2.78;;;;;;;7.86;38.27;93768.97;5040745;28;19925;-82
2021/03/07 10:40:15;;;;;;;4.95;2.17;;;;;;;7.40;38.48;93768.19;5029828;28;20049;-81
2021/03/07 10:42:42;;;;;;;7.22;3.53;;;;;;;7.11;40.58;93756.19;5042765;28;20045;-81
2021/03/07 10:45:20;;;;;;;2.97;1.60;;;;;;;7.95;40.16;93755.09;5040290;28;20053;-82
2021/03/07 10:47:59;;;;;;;6.53;2.30;;;;;;;8.39;40.20;93750.03;5030253;28;20045;-82
2021/03/07 10:50:27;;;;;;;2.85;1.70;;;;;;;8.48;39.95;93741.25;5030515;28;20053;-83
2021/03/07 10:52:53;;;;;;;5.88;2.17;;;;;;;8.77;39.72;93743.91;5030078;28;20061;-82
2021/03/07 10:55:20;;;;;;;4.30;2.03;;;;;;;8.95;38.17;93741.66;5030332;28;20360;-83
2021/03/07 10:57:46;;;;;;;2.92;1.50;;;;;;;8.98;37.95;93737.16;5024720;28;20046;-82
2021/03/07 11:00:14;;;;;;;3.53;1.75;;;;;;;9.08;37.89;93715.34;5027222;28;20128;-84
2021/03/07 11:02:42;;;;;;;3.35;2.15;;;;;;;9.27;36.97;93715.66;5023727;28;20065;-82
2021/03/07 11:05:10;;;;;;;3.22;2.20;;;;;;;9.21;37.83;93718.97;5018946;28;20209;-82
2021/03/07 11:07:37;;;;;;;4.05;1.50;;;;;;;9.12;38.43;93712.41;5006426;28;20053;-82
2021/03/07 11:10:06;;;;;;;4.95;1.85;;;;;;;9.12;38.33;93712.41;4999489;28;20046;-82
2021/03/07 11:12:33;;;;;;;2.08;1.60;;;;;;;9.25;36.76;93684.28;5007657;28;20108;-82
2021/03/07 11:14:58;;;;;;;;;;;;;;;9.34;37.32;93697.75;5032786;28;20044;-83
2021/03/07 11:17:25;;;;;;;3.33;1.63;;;;;;;9.18;36.68;93694.53;5019629;28;19968;-83
2021/03/07 11:19:51;;;;;;;1.50;1.15;;;;;;;9.38;34.42;93685.34;5020542;28;20447;-81
2021/03/07 11:22:20;;;;;;;3.30;2.40;;;;;;;9.60;36.02;93688.59;5024164;28;20095;-83
2021/03/07 11:24:51;;;;;;;4.07;2.63;;;;;;;9.62;35.58;93684.84;5019651;28;20840;-83
2021/03/07 11:27:18;;;;;;;3.45;1.90;;;;;;;9.69;35.24;93679.75;5030096;28;20103;-81
2021/03/07 11:29:44;;;;;;;3.22;1.65;;;;;;;9.58;35.59;93680.31;5010146;28;20045;-82
2021/03/07 11:32:11;;;;;;;2.92;1.60;;;;;;;9.61;35.65;93674.78;5009568;28;20119;-83
2021/03/07 11:34:37;;;;;;;4.70;1.80;;;;;;;9.68;35.23;93667.91;5009817;28;20050;-81
2021/03/07 11:37:03;;;;;;;;;;;;;;;9.80;35.71;93659.63;5010124;28;20437;-82
2021/03/07 11:39:29;;;;;;;4.38;2.33;;;;;;;9.65;36.23;93645.22;5009532;28;19921;-82
2021/03/07 11:41:56;;;;;;;;;;;;;;;9.72;34.55;93663.19;5009950;28;20505;-82
2021/03/07 11:44:23;;;;;;;10.02;3.05;;;;;;;9.14;35.29;93648.94;5009489;28;19921;-83
2021/03/07 11:46:51;;;;;;;104.35;27.50;;;;;;;9.23;35.71;93653.72;5009302;28;20485;-82
2021/03/07 11:49:18;;;;;;;27.60;9.93;;;;;;;9.28;35.47;93650.59;5009349;28;20527;-83
2021/03/07 11:51:44;;;;;;;40.65;11.13;;;;;;;9.45;34.46;93634.88;5009196;28;20046;-82